createdAt,value
2023-04-09T00:00:53.624Z,0.00
2023-04-09T00:01:53.613Z,0.00
2023-04-09T00:02:53.692Z,0.00
2023-04-09T00:03:53.603Z,0.00
2023-04-09T00:04:53.544Z,0.00
2023-04-09T00:05:53.560Z,0.00
2023-04-09T00:06:53.580Z,0.00
2023-04-09T00:07:53.529Z,0.00
2023-04-09T00:08:53.792Z,0.00
2023-04-09T00:09:53.527Z,0.00
2023-04-09T00:10:53.513Z,0.00
2023-04-09T00:11:53.505Z,0.00
2023-04-09T00:12:53.542Z,0.00
2023-04-09T00:13:53.481Z,0.00
2023-04-09T00:14:53.491Z,0.00
2023-04-09T00:15:53.507Z,0.00
2023-04-09T00:16:53.478Z,0.00
2023-04-09T00:17:53.476Z,0.00
2023-04-09T00:18:54.039Z,0.00
2023-04-09T00:19:53.445Z,0.00
2023-04-09T00:20:53.422Z,0.00
2023-04-09T00:21:53.439Z,0.00
2023-04-09T00:22:53.424Z,0.00
2023-04-09T00:23:53.416Z,0.00
2023-04-09T00:24:53.444Z,0.00
2023-04-09T00:25:53.430Z,0.00
2023-04-09T00:26:53.424Z,0.00
2023-04-09T00:27:53.401Z,0.00
2023-04-09T00:28:53.540Z,0.00
2023-04-09T00:29:53.369Z,0.00
2023-04-09T00:30:53.403Z,0.00
2023-04-09T00:31:53.421Z,0.00
2023-04-09T00:32:53.387Z,0.00
2023-04-09T00:33:53.366Z,0.00
2023-04-09T00:34:53.345Z,0.00
2023-04-09T00:35:53.362Z,0.00
2023-04-09T00:36:53.416Z,0.00
2023-04-09T00:37:53.345Z,0.00
2023-04-09T00:38:53.529Z,0.00
2023-04-09T00:39:53.420Z,0.00
2023-04-09T00:40:53.348Z,0.00
2023-04-09T00:41:53.303Z,0.00
2023-04-09T00:42:53.344Z,0.00
2023-04-09T00:43:53.299Z,0.00
2023-04-09T00:44:53.318Z,0.00
2023-04-09T00:45:53.324Z,0.00
2023-04-09T00:46:53.245Z,0.00
2023-04-09T00:47:53.421Z,0.00
2023-04-09T00:48:53.877Z,0.00
2023-04-09T00:49:53.225Z,0.00
2023-04-09T00:50:53.223Z,0.00
2023-04-09T00:51:53.223Z,0.00
2023-04-09T00:52:53.225Z,0.00
2023-04-09T00:53:53.209Z,0.00
2023-04-09T00:54:53.227Z,0.00
2023-04-09T00:55:53.193Z,0.00
2023-04-09T00:56:53.182Z,0.00
2023-04-09T00:57:53.165Z,0.00
2023-04-09T00:58:53.372Z,0.00
2023-04-09T00:59:53.161Z,0.00
2023-04-09T01:00:53.186Z,0.00
2023-04-09T01:01:53.222Z,0.00
2023-04-09T01:02:53.259Z,0.00
2023-04-09T01:03:53.161Z,0.00
2023-04-09T01:04:53.124Z,0.00
2023-04-09T01:05:53.124Z,0.00
2023-04-09T01:06:53.162Z,0.00
2023-04-09T01:07:53.100Z,0.00
2023-04-09T01:08:53.230Z,0.00
2023-04-09T01:09:53.078Z,0.00
2023-04-09T01:10:53.081Z,0.00
2023-04-09T01:11:53.086Z,0.00
2023-04-09T01:12:53.107Z,0.00
2023-04-09T01:13:53.059Z,0.00
2023-04-09T01:14:53.060Z,0.00
2023-04-09T01:15:53.058Z,0.00
2023-04-09T01:16:53.156Z,0.00
2023-04-09T01:17:53.242Z,0.00
2023-04-09T01:18:53.192Z,0.00
2023-04-09T01:19:53.019Z,0.00
2023-04-09T01:20:53.020Z,0.00
2023-04-09T01:21:53.011Z,0.00
2023-04-09T01:22:53.002Z,0.00
2023-04-09T01:23:53.077Z,0.00
2023-04-09T01:24:53.038Z,0.00
2023-04-09T01:25:52.981Z,0.00
2023-04-09T01:26:52.983Z,0.00
2023-04-09T01:27:52.961Z,0.00
2023-04-09T01:28:53.294Z,0.00
2023-04-09T01:29:53.000Z,0.00
2023-04-09T01:30:53.016Z,0.00
2023-04-09T01:31:52.939Z,0.00
2023-04-09T01:32:53.011Z,0.00
2023-04-09T01:33:52.916Z,0.00
2023-04-09T01:34:52.922Z,0.00
2023-04-09T01:35:52.931Z,0.00
2023-04-09T01:36:52.937Z,0.00
2023-04-09T01:37:52.904Z,0.00
2023-04-09T01:38:53.044Z,0.00
2023-04-09T01:39:52.901Z,0.00
2023-04-09T01:40:52.886Z,0.00
2023-04-09T01:41:52.862Z,0.00
2023-04-09T01:42:52.899Z,0.00
2023-04-09T01:43:52.868Z,0.00
2023-04-09T01:44:52.839Z,0.00
2023-04-09T01:45:52.878Z,0.00
2023-04-09T01:46:52.842Z,0.00
2023-04-09T01:47:52.916Z,0.00
2023-04-09T01:48:53.027Z,0.00
2023-04-09T01:49:52.821Z,0.00
2023-04-09T01:50:52.824Z,0.00
2023-04-09T01:51:52.801Z,0.00
2023-04-09T01:52:52.780Z,0.00
2023-04-09T01:53:52.787Z,0.00
2023-04-09T01:54:53.209Z,0.00
2023-04-09T01:55:52.782Z,0.00
2023-04-09T01:56:52.758Z,0.00
2023-04-09T01:57:52.781Z,0.00
2023-04-09T01:58:52.922Z,0.00
2023-04-09T01:59:52.738Z,0.00
2023-04-09T02:00:52.847Z,0.00
2023-04-09T02:01:52.843Z,0.00
2023-04-09T02:02:52.871Z,0.00
2023-04-09T02:03:52.887Z,0.00
2023-04-09T02:04:52.703Z,0.00
2023-04-09T02:05:52.700Z,0.00
2023-04-09T02:06:52.763Z,0.00
2023-04-09T02:07:52.681Z,0.00
2023-04-09T02:08:52.969Z,0.00
2023-04-09T02:09:52.684Z,0.00
2023-04-09T02:10:52.688Z,0.00
2023-04-09T02:11:52.643Z,0.00
2023-04-09T02:12:52.704Z,0.00
2023-04-09T02:13:52.649Z,0.00
2023-04-09T02:14:52.661Z,0.00
2023-04-09T02:15:52.681Z,0.00
2023-04-09T02:16:52.631Z,0.00
2023-04-09T02:17:52.635Z,0.00
2023-04-09T02:18:52.758Z,0.00
2023-04-09T02:19:52.600Z,0.00
2023-04-09T02:20:52.607Z,0.00
2023-04-09T02:21:52.591Z,0.00
2023-04-09T02:22:52.608Z,0.00
2023-04-09T02:23:52.585Z,0.00
2023-04-09T02:24:52.628Z,0.00
2023-04-09T02:25:52.568Z,0.00
2023-04-09T02:26:52.569Z,0.00
2023-04-09T02:27:52.539Z,0.00
2023-04-09T02:28:52.776Z,0.00
2023-04-09T02:29:52.535Z,0.00
2023-04-09T02:30:52.563Z,0.00
2023-04-09T02:31:52.506Z,0.00
2023-04-09T02:32:52.550Z,0.00
2023-04-09T02:33:52.522Z,0.00
2023-04-09T02:34:52.523Z,0.00
2023-04-09T02:35:52.515Z,0.00
2023-04-09T02:36:52.522Z,0.00
2023-04-09T02:37:52.498Z,0.00
2023-04-09T02:38:52.667Z,0.00
2023-04-09T02:39:52.453Z,0.00
2023-04-09T02:40:52.438Z,0.00
2023-04-09T02:41:52.463Z,0.00
2023-04-09T02:42:52.484Z,0.00
2023-04-09T02:43:52.426Z,0.00
2023-04-09T02:44:52.422Z,0.00
2023-04-09T02:45:52.439Z,0.00
2023-04-09T02:46:52.434Z,0.00
2023-04-09T02:47:52.429Z,0.00
2023-04-09T02:48:52.831Z,0.00
2023-04-09T02:49:52.408Z,0.00
2023-04-09T02:50:52.398Z,0.00
2023-04-09T02:51:52.382Z,0.00
2023-04-09T02:52:52.357Z,0.00
2023-04-09T02:53:52.381Z,0.00
2023-04-09T02:54:52.411Z,0.00
2023-04-09T02:55:52.348Z,0.00
2023-04-09T02:56:52.345Z,0.00
2023-04-09T02:57:52.346Z,0.00
2023-04-09T02:58:52.516Z,0.00
2023-04-09T02:59:52.343Z,0.00
2023-04-09T03:00:52.800Z,0.00
2023-04-09T03:01:52.377Z,0.00
2023-04-09T03:02:52.437Z,0.00
2023-04-09T03:03:52.415Z,0.00
2023-04-09T03:04:52.304Z,0.00
2023-04-09T03:05:52.268Z,0.00
2023-04-09T03:06:52.293Z,0.00
2023-04-09T03:07:52.259Z,0.00
2023-04-09T03:08:52.485Z,0.00
2023-04-09T03:09:52.257Z,0.00
2023-04-09T03:10:52.265Z,0.00
2023-04-09T03:11:52.236Z,0.00
2023-04-09T03:12:52.276Z,0.00
2023-04-09T03:13:52.228Z,0.00
2023-04-09T03:14:52.196Z,0.00
2023-04-09T03:15:52.283Z,0.00
2023-04-09T03:16:52.195Z,0.00
2023-04-09T03:17:52.240Z,0.00
2023-04-09T03:18:52.457Z,0.00
2023-04-09T03:19:52.182Z,0.00
2023-04-09T03:20:52.179Z,0.00
2023-04-09T03:21:52.207Z,0.00
2023-04-09T03:22:52.186Z,0.00
2023-04-09T03:23:52.135Z,0.00
2023-04-09T03:24:52.202Z,0.00
2023-04-09T03:25:52.159Z,0.00
2023-04-09T03:26:52.141Z,0.00
2023-04-09T03:27:52.098Z,0.00
2023-04-09T03:28:52.271Z,0.00
2023-04-09T03:29:52.125Z,0.00
2023-04-09T03:30:52.138Z,0.00
2023-04-09T03:31:52.088Z,0.00
2023-04-09T03:32:52.140Z,0.00
2023-04-09T03:33:52.065Z,0.00
2023-04-09T03:34:52.083Z,0.00
2023-04-09T03:35:52.131Z,0.00
2023-04-09T03:36:52.114Z,0.00
2023-04-09T03:37:52.067Z,0.00
2023-04-09T03:38:52.155Z,0.00
2023-04-09T03:39:52.037Z,0.00
2023-04-09T03:40:52.025Z,0.00
2023-04-09T03:41:52.053Z,0.00
2023-04-09T03:42:52.034Z,0.00
2023-04-09T03:43:52.026Z,0.00
2023-04-09T03:44:52.017Z,0.00
2023-04-09T03:45:51.999Z,0.00
2023-04-09T03:46:52.037Z,0.00
2023-04-09T03:47:52.045Z,0.00
2023-04-09T03:48:52.222Z,0.00
2023-04-09T03:49:51.972Z,0.00
2023-04-09T03:50:51.941Z,0.00
2023-04-09T03:51:51.973Z,0.00
2023-04-09T03:52:52.015Z,0.00
2023-04-09T03:53:51.958Z,0.00
2023-04-09T03:54:51.996Z,0.00
2023-04-09T03:55:51.974Z,0.00
2023-04-09T03:56:51.919Z,0.00
2023-04-09T03:57:51.921Z,0.00
2023-04-09T03:58:52.190Z,0.00
2023-04-09T03:59:51.889Z,0.00
2023-04-09T04:00:51.917Z,0.00
2023-04-09T04:01:51.935Z,0.00
2023-04-09T04:02:52.078Z,0.00
2023-04-09T04:03:51.920Z,0.00
2023-04-09T04:04:51.915Z,0.00
2023-04-09T04:05:51.829Z,0.00
2023-04-09T04:06:52.327Z,0.00
2023-04-09T04:07:51.836Z,0.00
2023-04-09T04:08:51.971Z,0.00
2023-04-09T04:09:51.796Z,0.00
2023-04-09T04:10:51.823Z,0.00
2023-04-09T04:11:51.810Z,1.00
2023-04-09T04:12:51.844Z,1.00
2023-04-09T04:13:51.770Z,0.00
2023-04-09T04:14:51.792Z,0.00
2023-04-09T04:15:51.783Z,0.00
2023-04-09T04:16:51.762Z,0.00
2023-04-09T04:17:51.781Z,0.00
2023-04-09T04:18:52.007Z,1.00
2023-04-09T04:19:51.765Z,1.00
2023-04-09T04:20:51.719Z,1.00
2023-04-09T04:21:51.717Z,1.00
2023-04-09T04:22:51.708Z,2.00
2023-04-09T04:23:51.712Z,1.00
2023-04-09T04:24:51.757Z,2.00
2023-04-09T04:25:51.700Z,2.00
2023-04-09T04:26:51.701Z,2.00
2023-04-09T04:27:51.669Z,5.00
2023-04-09T04:28:51.848Z,5.00
2023-04-09T04:29:51.686Z,5.00
2023-04-09T04:30:51.702Z,4.00
2023-04-09T04:31:51.668Z,6.00
2023-04-09T04:32:51.658Z,8.00
2023-04-09T04:33:51.624Z,10.00
2023-04-09T04:34:51.663Z,11.00
2023-04-09T04:35:51.690Z,13.00
2023-04-09T04:36:51.670Z,12.00
2023-04-09T04:37:51.606Z,15.00
2023-04-09T04:38:51.799Z,17.00
2023-04-09T04:39:51.592Z,19.00
2023-04-09T04:40:51.612Z,23.00
2023-04-09T04:41:51.585Z,23.00
2023-04-09T04:42:51.599Z,26.00
2023-04-09T04:43:51.564Z,28.00
2023-04-09T04:44:51.562Z,32.00
2023-04-09T04:45:53.539Z,34.00
2023-04-09T04:46:51.541Z,37.00
2023-04-09T04:47:51.588Z,39.00
2023-04-09T04:48:51.748Z,43.00
2023-04-09T04:49:51.549Z,48.00
2023-04-09T04:50:51.497Z,52.00
2023-04-09T04:51:51.527Z,57.00
2023-04-09T04:52:51.497Z,62.00
2023-04-09T04:53:51.484Z,66.00
2023-04-09T04:54:51.522Z,72.00
2023-04-09T04:55:51.472Z,79.00
2023-04-09T04:56:51.462Z,83.00
2023-04-09T04:57:51.477Z,93.00
2023-04-09T04:58:51.650Z,96.00
2023-04-09T04:59:51.449Z,102.00
2023-04-09T05:00:51.500Z,105.00
2023-04-09T05:01:51.484Z,112.00
2023-04-09T05:02:51.589Z,118.00
2023-04-09T05:03:51.474Z,127.00
2023-04-09T05:04:51.397Z,133.00
2023-04-09T05:05:51.445Z,141.00
2023-04-09T05:06:51.432Z,148.00
2023-04-09T05:07:51.407Z,157.00
2023-04-09T05:08:51.537Z,166.00
2023-04-09T05:09:51.354Z,174.00
2023-04-09T05:10:51.386Z,183.00
2023-04-09T05:11:51.381Z,192.00
2023-04-09T05:12:51.672Z,201.00
2023-04-09T05:13:51.383Z,210.00
2023-04-09T05:14:51.345Z,218.00
2023-04-09T05:15:51.326Z,227.00
2023-04-09T05:16:51.456Z,237.00
2023-04-09T05:17:51.351Z,245.00
2023-04-09T05:18:51.444Z,255.00
2023-04-09T05:19:51.306Z,266.00
2023-04-09T05:20:51.297Z,278.00
2023-04-09T05:21:51.301Z,293.00
2023-04-09T05:22:51.295Z,306.00
2023-04-09T05:23:51.306Z,322.00
2023-04-09T05:24:51.302Z,337.00
2023-04-09T05:25:51.260Z,351.00
2023-04-09T05:26:51.246Z,366.00
2023-04-09T05:27:51.275Z,382.00
2023-04-09T05:28:51.515Z,397.00
2023-04-09T05:29:51.218Z,411.00
2023-04-09T05:30:51.361Z,425.00
2023-04-09T05:31:51.257Z,442.00
2023-04-09T05:32:51.253Z,460.00
2023-04-09T05:33:51.220Z,478.00
2023-04-09T05:34:51.197Z,498.00
2023-04-09T05:35:51.249Z,518.00
2023-04-09T05:36:51.245Z,533.00
2023-04-09T05:37:51.189Z,551.00
2023-04-09T05:38:51.436Z,569.00
2023-04-09T05:39:51.165Z,587.00
2023-04-09T05:40:51.170Z,608.00
2023-04-09T05:41:51.168Z,627.00
2023-04-09T05:42:51.177Z,645.00
2023-04-09T05:43:51.284Z,664.00
2023-04-09T05:44:51.123Z,681.00
2023-04-09T05:45:51.166Z,698.00
2023-04-09T05:46:51.116Z,710.00
2023-04-09T05:47:51.174Z,723.00
2023-04-09T05:48:51.365Z,735.00
2023-04-09T05:49:51.104Z,751.00
2023-04-09T05:50:55.089Z,766.00
2023-04-09T05:51:51.080Z,781.00
2023-04-09T05:52:51.048Z,796.00
2023-04-09T05:53:51.441Z,810.00
2023-04-09T05:54:51.105Z,821.00
2023-04-09T05:55:51.067Z,834.00
2023-04-09T05:56:51.059Z,844.00
2023-04-09T05:57:51.073Z,853.00
2023-04-09T05:58:51.033Z,864.00
2023-04-09T05:59:51.019Z,875.00
2023-04-09T06:00:51.077Z,891.00
2023-04-09T06:01:51.043Z,898.00
2023-04-09T06:02:51.069Z,911.00
2023-04-09T06:03:51.441Z,919.00
2023-04-09T06:04:51.079Z,931.00
2023-04-09T06:05:50.976Z,945.00
2023-04-09T06:06:51.018Z,958.00
2023-04-09T06:07:50.958Z,974.00
2023-04-09T06:08:50.964Z,987.00
2023-04-09T06:09:50.960Z,995.00
2023-04-09T06:10:50.938Z,1005.00
2023-04-09T06:11:50.954Z,1015.00
2023-04-09T06:12:50.959Z,1029.00
2023-04-09T06:13:51.159Z,1040.00
2023-04-09T06:14:50.911Z,1049.00
2023-04-09T06:15:50.957Z,1053.00
2023-04-09T06:16:50.925Z,1054.00
2023-04-09T06:17:50.939Z,1065.00
2023-04-09T06:18:51.144Z,1076.00
2023-04-09T06:19:50.888Z,1088.00
2023-04-09T06:20:50.882Z,1102.00
2023-04-09T06:21:50.859Z,1115.00
2023-04-09T06:22:50.873Z,1140.00
2023-04-09T06:23:51.104Z,1166.00
2023-04-09T06:24:50.907Z,1196.00
2023-04-09T06:25:50.825Z,1226.00
2023-04-09T06:26:50.842Z,1256.00
2023-04-09T06:27:50.832Z,1285.00
2023-04-09T06:28:50.822Z,1311.00
2023-04-09T06:29:50.835Z,1328.00
2023-04-09T06:30:50.856Z,1343.00
2023-04-09T06:31:50.850Z,1359.00
2023-04-09T06:32:54.597Z,1382.00
2023-04-09T06:33:51.177Z,1407.00
2023-04-09T06:34:50.785Z,1443.00
2023-04-09T06:35:50.804Z,1488.00
2023-04-09T06:36:50.855Z,1527.00
2023-04-09T06:37:50.741Z,1569.00
2023-04-09T06:38:50.746Z,1608.00
2023-04-09T06:40:00.618Z,1640.00
2023-04-09T06:40:51.755Z,1670.00
2023-04-09T06:41:50.724Z,1696.00
2023-04-09T06:42:50.778Z,1723.00
2023-04-09T06:43:51.066Z,1747.00
2023-04-09T06:44:50.702Z,1768.00
2023-04-09T06:45:50.697Z,1793.00
2023-04-09T06:46:50.823Z,1822.00
2023-04-09T06:47:50.728Z,1849.00
2023-04-09T06:48:50.785Z,1877.00
2023-04-09T06:49:50.664Z,1905.00
2023-04-09T06:50:50.658Z,1934.00
2023-04-09T06:51:50.677Z,1968.00
2023-04-09T06:52:50.645Z,1995.00
2023-04-09T06:53:50.866Z,2024.00
2023-04-09T06:54:50.670Z,2052.00
2023-04-09T06:55:50.877Z,2077.00
2023-04-09T06:56:50.602Z,2093.00
2023-04-09T06:57:50.642Z,2112.00
2023-04-09T06:58:50.627Z,2138.00
2023-04-09T06:59:50.638Z,2176.00
2023-04-09T07:00:50.629Z,2213.00
2023-04-09T07:01:53.315Z,2240.00
2023-04-09T07:02:50.786Z,2263.00
2023-04-09T07:03:50.791Z,2283.00
2023-04-09T07:04:50.623Z,2304.00
2023-04-09T07:05:50.547Z,2324.00
2023-04-09T07:06:50.585Z,2342.00
2023-04-09T07:07:50.547Z,2356.00
2023-04-09T07:08:50.890Z,2370.00
2023-04-09T07:09:50.538Z,2385.00
2023-04-09T07:10:50.508Z,2408.00
2023-04-09T07:11:50.538Z,2434.00
2023-04-09T07:12:50.557Z,2467.00
2023-04-09T07:13:50.561Z,2504.00
2023-04-09T07:14:50.505Z,2546.00
2023-04-09T07:15:50.516Z,2589.00
2023-04-09T07:16:50.497Z,2627.00
2023-04-09T07:17:50.472Z,2660.00
2023-04-09T07:18:50.735Z,2694.00
2023-04-09T07:19:50.437Z,2727.00
2023-04-09T07:20:50.464Z,2752.00
2023-04-09T07:21:50.474Z,2775.00
2023-04-09T07:22:50.416Z,2802.00
2023-04-09T07:23:50.599Z,2831.00
2023-04-09T07:24:50.476Z,2863.00
2023-04-09T07:25:50.399Z,2883.00
2023-04-09T07:26:52.043Z,2906.00
2023-04-09T07:27:50.387Z,2934.00
2023-04-09T07:28:50.437Z,2957.00
2023-04-09T07:29:50.351Z,2971.00
2023-04-09T07:30:50.413Z,2980.00
2023-04-09T07:31:50.393Z,2998.00
2023-04-09T07:32:50.379Z,3016.00
2023-04-09T07:33:50.474Z,3044.00
2023-04-09T07:34:50.351Z,3060.00
2023-04-09T07:35:50.364Z,3077.00
2023-04-09T07:36:50.352Z,3094.00
2023-04-09T07:37:50.314Z,3120.00
2023-04-09T07:38:50.367Z,3156.00
2023-04-09T07:39:50.288Z,3185.00
2023-04-09T07:40:50.282Z,3213.00
2023-04-09T07:41:50.289Z,3224.00
2023-04-09T07:42:50.301Z,3233.00
2023-04-09T07:43:50.270Z,3267.00
2023-04-09T07:44:50.258Z,3325.00
2023-04-09T07:45:50.249Z,3391.00
2023-04-09T07:46:50.343Z,3424.00
2023-04-09T07:47:50.280Z,3451.00
2023-04-09T07:48:50.609Z,3478.00
2023-04-09T07:49:50.245Z,3495.00
2023-04-09T07:50:50.220Z,3514.00
2023-04-09T07:51:50.218Z,3529.00
2023-04-09T07:52:50.189Z,3537.00
2023-04-09T07:53:50.213Z,3538.00
2023-04-09T07:54:50.231Z,3528.00
2023-04-09T07:55:50.173Z,3525.00
2023-04-09T07:56:50.160Z,3538.00
2023-04-09T07:57:50.186Z,3575.00
2023-04-09T07:58:50.411Z,3590.00
2023-04-09T07:59:50.145Z,3592.00
2023-04-09T08:00:50.193Z,3579.00
2023-04-09T08:01:50.289Z,3578.00
2023-04-09T08:02:50.259Z,3581.00
2023-04-09T08:03:50.351Z,3599.00
2023-04-09T08:04:50.210Z,3628.00
2023-04-09T08:05:50.101Z,3671.00
2023-04-09T08:06:50.164Z,3713.00
2023-04-09T08:07:50.128Z,3762.00
2023-04-09T08:08:50.238Z,3814.00
2023-04-09T08:09:50.076Z,3842.00
2023-04-09T08:10:50.067Z,3840.00
2023-04-09T08:11:50.068Z,3827.00
2023-04-09T08:12:50.130Z,3809.00
2023-04-09T08:13:50.059Z,3800.00
2023-04-09T08:14:50.047Z,3830.00
2023-04-09T08:15:50.040Z,3864.00
2023-04-09T08:16:50.303Z,3864.00
2023-04-09T08:17:50.063Z,3853.00
2023-04-09T08:18:50.068Z,3833.00
2023-04-09T08:19:50.010Z,3841.00
2023-04-09T08:20:50.022Z,3867.00
2023-04-09T08:21:50.013Z,3909.00
2023-04-09T08:22:49.985Z,3944.00
2023-04-09T08:23:49.980Z,3957.00
2023-04-09T08:24:50.066Z,3959.00
2023-04-09T08:25:49.974Z,3971.00
2023-04-09T08:26:49.960Z,4005.00
2023-04-09T08:27:49.963Z,4046.00
2023-04-09T08:28:49.974Z,4086.00
2023-04-09T08:29:49.957Z,4065.00
2023-04-09T08:30:49.979Z,4017.00
2023-04-09T08:31:49.979Z,4008.00
2023-04-09T08:32:49.974Z,4005.00
2023-04-09T08:33:49.902Z,4009.00
2023-04-09T08:34:49.910Z,4040.00
2023-04-09T08:35:49.881Z,4065.00
2023-04-09T08:36:55.566Z,4082.00
2023-04-09T08:37:49.860Z,4114.00
2023-04-09T08:38:49.911Z,4165.00
2023-04-09T08:39:49.873Z,4215.00
2023-04-09T08:40:49.869Z,4254.00
2023-04-09T08:41:49.866Z,4273.00
2023-04-09T08:42:49.889Z,4293.00
2023-04-09T08:43:57.615Z,4334.00
2023-04-09T08:44:50.812Z,4368.00
2023-04-09T08:45:49.875Z,4414.00
2023-04-09T08:46:49.810Z,4511.00
2023-04-09T08:47:49.862Z,4476.00
2023-04-09T08:48:50.044Z,4453.00
2023-04-09T08:49:49.806Z,4435.00
2023-04-09T08:50:49.815Z,4450.00
2023-04-09T08:51:49.781Z,4470.00
2023-04-09T08:52:49.775Z,4481.00
2023-04-09T08:53:49.782Z,4486.00
2023-04-09T08:54:49.851Z,4452.00
2023-04-09T08:55:49.767Z,4446.00
2023-04-09T08:56:49.799Z,4446.00
2023-04-09T08:57:49.747Z,4453.00
2023-04-09T08:58:49.748Z,4522.00
2023-04-09T08:59:49.706Z,4600.00
2023-04-09T09:00:49.755Z,4648.00
2023-04-09T09:01:49.791Z,4670.00
2023-04-09T09:02:49.819Z,4669.00
2023-04-09T09:03:49.841Z,4668.00
2023-04-09T09:04:49.712Z,4632.00
2023-04-09T09:05:49.693Z,4622.00
2023-04-09T09:06:49.719Z,4682.00
2023-04-09T09:07:49.662Z,4741.00
2023-04-09T09:08:49.679Z,4828.00
2023-04-09T09:09:49.650Z,4973.00
2023-04-09T09:10:49.677Z,4849.00
2023-04-09T09:11:49.634Z,4825.00
2023-04-09T09:12:49.659Z,4826.00
2023-04-09T09:13:49.618Z,4826.00
2023-04-09T09:14:49.623Z,4841.00
2023-04-09T09:15:49.623Z,4876.00
2023-04-09T09:16:49.659Z,4903.00
2023-04-09T09:17:49.633Z,4910.00
2023-04-09T09:18:50.196Z,4900.00
2023-04-09T09:19:49.589Z,4900.00
2023-04-09T09:20:49.577Z,4881.00
2023-04-09T09:21:49.579Z,4869.00
2023-04-09T09:22:49.576Z,4906.00
2023-04-09T09:23:50.598Z,4958.00
2023-04-09T09:24:50.451Z,5030.00
2023-04-09T09:25:49.549Z,5044.00
2023-04-09T09:26:49.580Z,4989.00
2023-04-09T09:27:49.522Z,4963.00
2023-04-09T09:28:49.509Z,4892.00
2023-04-09T09:29:49.854Z,4896.00
2023-04-09T09:30:49.595Z,4951.00
2023-04-09T09:31:49.605Z,5101.00
2023-04-09T09:32:49.535Z,5179.00
2023-04-09T09:33:49.494Z,5284.00
2023-04-09T09:34:49.470Z,5272.00
2023-04-09T09:35:49.616Z,5365.00
2023-04-09T09:36:49.486Z,5323.00
2023-04-09T09:37:49.447Z,5378.00
2023-04-09T09:38:49.440Z,5237.00
2023-04-09T09:39:49.452Z,5265.00
2023-04-09T09:40:49.415Z,5299.00
2023-04-09T09:41:49.450Z,5299.00
2023-04-09T09:42:49.424Z,5300.00
2023-04-09T09:43:49.425Z,5431.00
2023-04-09T09:44:49.397Z,5295.00
2023-04-09T09:45:49.473Z,5141.00
2023-04-09T09:46:49.410Z,5128.00
2023-04-09T09:47:49.447Z,5228.00
2023-04-09T09:48:49.478Z,6238.00
2023-04-09T09:49:49.380Z,4924.00
2023-04-09T09:50:49.344Z,4641.00
2023-04-09T09:51:49.374Z,4600.00
2023-04-09T09:52:49.358Z,4515.00
2023-04-09T09:53:49.971Z,4487.00
2023-04-09T09:54:49.327Z,4447.00
2023-04-09T09:55:49.339Z,4310.00
2023-04-09T09:56:49.319Z,4125.00
2023-04-09T09:57:49.311Z,3973.00
2023-04-09T09:58:49.308Z,3910.00
2023-04-09T09:59:49.331Z,3933.00
2023-04-09T10:00:49.278Z,4003.00
2023-04-09T10:01:49.304Z,4141.00
2023-04-09T10:02:49.365Z,4314.00
2023-04-09T10:03:49.256Z,4429.00
2023-04-09T10:04:49.353Z,4494.00
2023-04-09T10:05:49.295Z,4552.00
2023-04-09T10:06:50.279Z,4597.00
2023-04-09T10:07:49.235Z,4632.00
2023-04-09T10:08:49.407Z,4661.00
2023-04-09T10:09:49.292Z,4711.00
2023-04-09T10:10:49.214Z,4703.00
2023-04-09T10:11:49.290Z,4643.00
2023-04-09T10:12:49.198Z,4611.00
2023-04-09T10:13:49.606Z,4614.00
2023-04-09T10:14:51.723Z,4564.00
2023-04-09T10:15:49.248Z,4504.00
2023-04-09T10:16:49.175Z,4402.00
2023-04-09T10:17:49.220Z,4268.00
2023-04-09T10:18:49.131Z,4142.00
2023-04-09T10:19:49.152Z,4065.00
2023-04-09T10:20:49.141Z,3936.00
2023-04-09T10:21:49.132Z,3727.00
2023-04-09T10:22:49.117Z,3552.00
2023-04-09T10:23:49.182Z,3428.00
2023-04-09T10:24:49.128Z,3312.00
2023-04-09T10:25:49.095Z,3188.00
2023-04-09T10:26:49.102Z,3085.00
2023-04-09T10:27:49.138Z,2976.00
2023-04-09T10:28:49.083Z,2875.00
2023-04-09T10:29:49.130Z,2783.00
2023-04-09T10:30:49.124Z,2689.00
2023-04-09T10:31:49.077Z,2625.00
2023-04-09T10:32:49.104Z,2612.00
2023-04-09T10:33:49.037Z,2600.00
2023-04-09T10:34:49.025Z,2588.00
2023-04-09T10:35:49.485Z,2573.00
2023-04-09T10:36:49.017Z,2564.00
2023-04-09T10:37:49.000Z,2541.00
2023-04-09T10:38:49.010Z,2506.00
2023-04-09T10:39:49.010Z,2464.00
2023-04-09T10:40:48.992Z,2415.00
2023-04-09T10:41:49.051Z,2370.00
2023-04-09T10:42:48.982Z,2355.00
2023-04-09T10:43:48.992Z,2367.00
2023-04-09T10:44:48.963Z,2397.00
2023-04-09T10:45:48.983Z,2446.00
2023-04-09T10:46:49.067Z,2513.00
2023-04-09T10:47:49.028Z,2617.00
2023-04-09T10:48:48.968Z,2754.00
2023-04-09T10:49:48.937Z,2962.00
2023-04-09T10:50:48.940Z,3189.00
2023-04-09T10:51:48.911Z,3393.00
2023-04-09T10:52:48.933Z,3594.00
2023-04-09T10:53:48.926Z,3816.00
2023-04-09T10:54:48.904Z,4021.00
2023-04-09T10:55:48.882Z,4216.00
2023-04-09T10:56:48.893Z,4388.00
2023-04-09T10:57:48.906Z,4552.00
2023-04-09T10:58:48.874Z,4705.00
2023-04-09T10:59:48.932Z,4848.00
2023-04-09T11:00:48.857Z,4966.00
2023-04-09T11:01:48.881Z,5053.00
2023-04-09T11:02:49.071Z,5122.00
2023-04-09T11:03:48.878Z,5166.00
2023-04-09T11:04:48.845Z,5255.00
2023-04-09T11:05:48.854Z,5421.00
2023-04-09T11:06:48.806Z,5477.00
2023-04-09T11:07:48.807Z,5328.00
2023-04-09T11:08:48.843Z,5141.00
2023-04-09T11:09:48.770Z,5089.00
2023-04-09T11:10:51.193Z,5072.00
2023-04-09T11:11:48.811Z,5039.00
2023-04-09T11:12:48.754Z,4949.00
2023-04-09T11:13:48.765Z,4820.00
2023-04-09T11:14:48.751Z,4700.00
2023-04-09T11:15:58.452Z,4604.00
2023-04-09T11:16:48.828Z,4516.00
2023-04-09T11:17:48.797Z,4375.00
2023-04-09T11:18:48.710Z,4226.00
2023-04-09T11:19:48.705Z,4090.00
2023-04-09T11:20:48.722Z,3936.00
2023-04-09T11:21:48.711Z,3757.00
2023-04-09T11:22:48.694Z,3611.00
2023-04-09T11:23:48.746Z,3475.00
2023-04-09T11:24:48.696Z,3395.00
2023-04-09T11:25:48.655Z,3398.00
2023-04-09T11:26:48.659Z,3447.00
2023-04-09T11:27:48.656Z,3454.00
2023-04-09T11:28:48.645Z,3443.00
2023-04-09T11:29:48.679Z,3420.00
2023-04-09T11:30:48.633Z,3364.00
2023-04-09T11:31:48.652Z,3336.00
2023-04-09T11:32:48.668Z,3398.00
2023-04-09T11:33:48.605Z,3494.00
2023-04-09T11:34:48.654Z,3599.00
2023-04-09T11:35:48.754Z,3669.00
2023-04-09T11:36:48.603Z,3684.00
2023-04-09T11:37:48.584Z,3638.00
2023-04-09T11:38:48.580Z,3549.00
2023-04-09T11:39:48.585Z,3423.00
2023-04-09T11:40:49.057Z,3305.00
2023-04-09T11:41:48.865Z,3234.00
2023-04-09T11:42:48.561Z,3230.00
2023-04-09T11:43:48.536Z,3257.00
2023-04-09T11:44:48.559Z,3294.00
2023-04-09T11:45:48.871Z,3370.00
2023-04-09T11:46:48.572Z,3472.00
2023-04-09T11:47:48.593Z,3566.00
2023-04-09T11:48:48.493Z,3578.00
2023-04-09T11:49:48.518Z,3530.00
2023-04-09T11:50:48.486Z,3409.00
2023-04-09T11:51:48.469Z,3311.00
2023-04-09T11:52:48.465Z,3263.00
2023-04-09T11:53:48.516Z,3243.00
2023-04-09T11:54:48.456Z,3267.00
2023-04-09T11:55:48.456Z,3334.00
2023-04-09T11:56:48.445Z,3442.00
2023-04-09T11:57:48.450Z,3596.00
2023-04-09T11:58:48.481Z,3758.00
2023-04-09T11:59:48.473Z,3922.00
2023-04-09T12:00:48.426Z,4036.00
2023-04-09T12:01:48.602Z,4061.00
2023-04-09T12:02:48.605Z,4097.00
2023-04-09T12:03:48.674Z,4146.00
2023-04-09T12:04:48.492Z,4180.00
2023-04-09T12:05:50.616Z,4237.00
2023-04-09T12:06:48.379Z,4322.00
2023-04-09T12:07:55.486Z,4450.00
2023-04-09T12:08:49.488Z,4592.00
2023-04-09T12:09:48.374Z,4734.00
2023-04-09T12:10:48.354Z,4824.00
2023-04-09T12:11:48.358Z,4904.00
2023-04-09T12:12:48.340Z,4966.00
2023-04-09T12:13:48.342Z,5024.00
2023-04-09T12:14:48.345Z,5052.00
2023-04-09T12:15:48.392Z,5064.00
2023-04-09T12:16:48.362Z,5112.00
2023-04-09T12:17:48.375Z,5084.00
2023-04-09T12:18:48.323Z,5057.00
2023-04-09T12:19:48.277Z,4985.00
2023-04-09T12:20:48.312Z,4918.00
2023-04-09T12:21:48.265Z,4825.00
2023-04-09T12:22:48.276Z,4764.00
2023-04-09T12:23:48.307Z,4741.00
2023-04-09T12:24:48.252Z,4792.00
2023-04-09T12:25:48.290Z,4840.00
2023-04-09T12:26:48.240Z,4869.00
2023-04-09T12:27:48.232Z,4942.00
2023-04-09T12:28:48.219Z,4974.00
2023-04-09T12:29:48.260Z,4899.00
2023-04-09T12:30:48.250Z,4841.00
2023-04-09T12:31:48.254Z,4860.00
2023-04-09T12:32:48.298Z,4845.00
2023-04-09T12:33:48.184Z,4859.00
2023-04-09T12:34:48.168Z,4861.00